sensor_id;sensor_type;location;lat;lon;timestamp;pressure;altitude;pressure_sealevel;temperature;humidity
29215;BME280;16252;49.816;7.964;2023-06-10T00:01:49;99676.53;;;23.76;38.95
29215;BME280;16252;49.816;7.964;2023-06-10T00:04:15;99691.25;;;23.82;39.00
29215;BME280;16252;49.816;7.964;2023-06-10T00:06:43;99703.44;;;23.86;39.04
29215;BME280;16252;49.816;7.964;2023-06-10T00:09:09;99709.53;;;23.88;38.98
29215;BME280;16252;49.816;7.964;2023-06-10T00:11:39;99692.28;;;23.74;39.09
29215;BME280;16252;49.816;7.964;2023-06-10T00:14:04;99711.41;;;23.81;39.15
29215;BME280;16252;49.816;7.964;2023-06-10T00:16:30;99710.78;;;23.78;39.31
29215;BME280;16252;49.816;7.964;2023-06-10T00:18:55;99711.22;;;23.75;39.35
29215;BME280;16252;49.816;7.964;2023-06-10T00:21:27;99708.47;;;23.75;39.22
29215;BME280;16252;49.816;7.964;2023-06-10T00:23:53;99689.72;;;23.59;39.21
29215;BME280;16252;49.816;7.964;2023-06-10T00:26:20;99663.50;;;23.45;39.69
29215;BME280;16252;49.816;7.964;2023-06-10T00:28:46;99705.06;;;23.67;39.70
29215;BME280;16252;49.816;7.964;2023-06-10T00:31:11;99699.41;;;23.62;39.70
29215;BME280;16252;49.816;7.964;2023-06-10T00:33:37;99704.66;;;23.56;39.66
29215;BME280;16252;49.816;7.964;2023-06-10T00:36:02;99655.47;;;23.23;39.75
29215;BME280;16252;49.816;7.964;2023-06-10T00:38:27;99665.75;;;23.21;39.58
29215;BME280;16252;49.816;7.964;2023-06-10T00:40:52;99681.72;;;23.24;39.75
29215;BME280;16252;49.816;7.964;2023-06-10T00:43:18;99711.97;;;23.36;40.02
29215;BME280;16252;49.816;7.964;2023-06-10T00:45:43;99683.38;;;23.19;40.08
29215;BME280;16252;49.816;7.964;2023-06-10T00:48:09;99693.88;;;23.15;39.94
29215;BME280;16252;49.816;7.964;2023-06-10T00:50:35;99659.78;;;22.91;40.35
29215;BME280;16252;49.816;7.964;2023-06-10T00:53:04;99699.94;;;23.10;40.34
29215;BME280;16252;49.816;7.964;2023-06-10T00:55:30;99637.09;;;22.77;40.03
29215;BME280;16252;49.816;7.964;2023-06-10T00:57:56;99682.47;;;22.91;40.28
29215;BME280;16252;49.816;7.964;2023-06-10T01:00:22;99690.44;;;22.93;40.34
29215;BME280;16252;49.816;7.964;2023-06-10T01:02:47;99678.00;;;22.77;40.33
29215;BME280;16252;49.816;7.964;2023-06-10T01:05:12;99688.72;;;22.85;40.47
29215;BME280;16252;49.816;7.964;2023-06-10T01:08:18;99712.97;;;23.02;40.03
29215;BME280;16252;49.816;7.964;2023-06-10T01:10:52;99693.75;;;22.82;40.66
29215;BME280;16252;49.816;7.964;2023-06-10T01:13:19;99666.38;;;22.55;40.64
29215;BME280;16252;49.816;7.964;2023-06-10T01:15:45;99702.50;;;22.70;40.95
29215;BME280;16252;49.816;7.964;2023-06-10T01:18:11;99652.66;;;22.35;41.08
29215;BME280;16252;49.816;7.964;2023-06-10T01:20:41;99712.78;;;22.68;40.91
29215;BME280;16252;49.816;7.964;2023-06-10T01:23:09;99693.41;;;22.50;40.97
29215;BME280;16252;49.816;7.964;2023-06-10T01:25:37;99708.75;;;22.58;41.37
29215;BME280;16252;49.816;7.964;2023-06-10T01:28:14;99676.75;;;22.32;41.11
29215;BME280;16252;49.816;7.964;2023-06-10T01:30:48;99695.22;;;22.36;41.40
29215;BME280;16252;49.816;7.964;2023-06-10T01:33:17;99681.50;;;22.23;41.52
29215;BME280;16252;49.816;7.964;2023-06-10T01:35:44;99724.16;;;22.37;41.51
29215;BME280;16252;49.816;7.964;2023-06-10T01:38:11;99707.25;;;22.20;41.50
29215;BME280;16252;49.816;7.964;2023-06-10T01:40:37;99697.97;;;22.08;41.64
29215;BME280;16252;49.816;7.964;2023-06-10T01:43:04;99708.63;;;22.10;41.81
29215;BME280;16252;49.816;7.964;2023-06-10T01:45:29;99720.63;;;22.15;41.94
29215;BME280;16252;49.816;7.964;2023-06-10T01:47:54;99712.16;;;22.03;41.76
29215;BME280;16252;49.816;7.964;2023-06-10T01:50:19;99716.56;;;22.04;41.89
29215;BME280;16252;49.816;7.964;2023-06-10T01:52:45;99667.31;;;21.71;41.79
29215;BME280;16252;49.816;7.964;2023-06-10T01:55:11;99712.75;;;21.99;42.04
29215;BME280;16252;49.816;7.964;2023-06-10T01:57:37;99708.72;;;21.88;41.74
29215;BME280;16252;49.816;7.964;2023-06-10T02:00:02;99694.34;;;21.73;41.90
29215;BME280;16252;49.816;7.964;2023-06-10T02:02:28;99730.69;;;21.86;42.08
29215;BME280;16252;49.816;7.964;2023-06-10T02:04:53;99700.16;;;21.70;42.06
29215;BME280;16252;49.816;7.964;2023-06-10T02:07:19;99719.69;;;21.73;41.92
29215;BME280;16252;49.816;7.964;2023-06-10T02:09:44;99709.31;;;21.62;42.08
29215;BME280;16252;49.816;7.964;2023-06-10T02:12:09;99714.97;;;21.60;42.14
29215;BME280;16252;49.816;7.964;2023-06-10T02:14:35;99716.53;;;21.48;42.17
29215;BME280;16252;49.816;7.964;2023-06-10T02:17:01;99703.06;;;21.40;42.35
29215;BME280;16252;49.816;7.964;2023-06-10T02:19:26;99709.88;;;21.36;42.47
29215;BME280;16252;49.816;7.964;2023-06-10T02:21:52;99702.59;;;21.21;42.69
29215;BME280;16252;49.816;7.964;2023-06-10T02:24:18;99733.00;;;21.40;42.55
29215;BME280;16252;49.816;7.964;2023-06-10T02:26:43;99716.09;;;21.30;42.64
29215;BME280;16252;49.816;7.964;2023-06-10T02:29:08;99720.25;;;21.26;42.29
29215;BME280;16252;49.816;7.964;2023-06-10T02:31:34;99712.66;;;21.21;42.42
29215;BME280;16252;49.816;7.964;2023-06-10T02:34:01;99731.78;;;21.28;42.53
29215;BME280;16252;49.816;7.964;2023-06-10T02:36:26;99718.78;;;21.08;42.54
29215;BME280;16252;49.816;7.964;2023-06-10T02:38:52;99705.22;;;20.93;42.69
29215;BME280;16252;49.816;7.964;2023-06-10T02:41:17;99731.94;;;21.05;42.66
29215;BME280;16252;49.816;7.964;2023-06-10T02:43:43;99616.59;;;20.26;42.85
29215;BME280;16252;49.816;7.964;2023-06-10T02:46:08;99726.25;;;20.85;42.88
29215;BME280;16252;49.816;7.964;2023-06-10T02:48:40;99716.34;;;20.77;42.81
29215;BME280;16252;49.816;7.964;2023-06-10T02:51:05;99734.91;;;20.73;43.19
29215;BME280;16252;49.816;7.964;2023-06-10T02:53:31;99718.91;;;20.64;42.92
29215;BME280;16252;49.816;7.964;2023-06-10T02:55:56;99757.31;;;20.75;43.06
29215;BME280;16252;49.816;7.964;2023-06-10T02:58:21;99716.16;;;20.49;43.23
29215;BME280;16252;49.816;7.964;2023-06-10T03:00:47;99740.16;;;20.60;43.50
29215;BME280;16252;49.816;7.964;2023-06-10T03:03:12;99727.38;;;20.46;43.17
29215;BME280;16252;49.816;7.964;2023-06-10T03:05:38;99727.59;;;20.44;43.39
29215;BME280;16252;49.816;7.964;2023-06-10T03:08:03;99648.91;;;19.91;43.54
29215;BME280;16252;49.816;7.964;2023-06-10T03:10:30;99758.22;;;20.53;43.17
29215;BME280;16252;49.816;7.964;2023-06-10T03:12:56;99744.06;;;20.43;43.54
29215;BME280;16252;49.816;7.964;2023-06-10T03:15:22;99698.06;;;20.11;43.47
29215;BME280;16252;49.816;7.964;2023-06-10T03:17:47;99748.38;;;20.37;43.56
29215;BME280;16252;49.816;7.964;2023-06-10T03:20:12;99749.78;;;20.33;43.65
29215;BME280;16252;49.816;7.964;2023-06-10T03:22:40;99751.84;;;20.31;43.60
29215;BME280;16252;49.816;7.964;2023-06-10T03:25:06;99697.38;;;19.95;43.62
29215;BME280;16252;49.816;7.964;2023-06-10T03:27:33;99745.06;;;20.12;43.81
29215;BME280;16252;49.816;7.964;2023-06-10T03:29:58;99738.06;;;20.03;43.94
29215;BME280;16252;49.816;7.964;2023-06-10T03:32:23;99733.72;;;19.94;43.87
29215;BME280;16252;49.816;7.964;2023-06-10T03:34:48;99738.50;;;19.91;43.99
29215;BME280;16252;49.816;7.964;2023-06-10T03:37:14;99717.09;;;19.74;43.89
29215;BME280;16252;49.816;7.964;2023-06-10T03:39:39;99752.72;;;19.94;43.82
29215;BME280;16252;49.816;7.964;2023-06-10T03:42:05;99745.69;;;19.84;44.15
29215;BME280;16252;49.816;7.964;2023-06-10T03:44:30;99718.81;;;19.66;44.25
29215;BME280;16252;49.816;7.964;2023-06-10T03:46:55;99747.72;;;19.82;44.26
29215;BME280;16252;49.816;7.964;2023-06-10T03:49:22;99758.72;;;19.89;44.28
29215;BME280;16252;49.816;7.964;2023-06-10T03:51:52;99769.41;;;19.90;44.21
29215;BME280;16252;49.816;7.964;2023-06-10T03:54:17;99761.28;;;19.82;44.69
29215;BME280;16252;49.816;7.964;2023-06-10T03:56:42;99718.91;;;19.58;44.65
29215;BME280;16252;49.816;7.964;2023-06-10T03:59:07;99762.88;;;19.77;44.34
29215;BME280;16252;49.816;7.964;2023-06-10T04:01:33;99762.72;;;19.78;44.67
29215;BME280;16252;49.816;7.964;2023-06-10T04:03:59;99721.50;;;19.52;44.93
29215;BME280;16252;49.816;7.964;2023-06-10T04:06:26;99728.63;;;19.53;44.96
29215;BME280;16252;49.816;7.964;2023-06-10T04:08:54;99749.06;;;19.63;44.82
29215;BME280;16252;49.816;7.964;2023-06-10T04:11:21;99777.13;;;19.79;45.09
29215;BME280;16252;49.816;7.964;2023-06-10T04:13:46;99771.53;;;19.80;45.05
29215;BME280;16252;49.816;7.964;2023-06-10T04:16:11;99693.16;;;19.31;45.19
29215;BME280;16252;49.816;7.964;2023-06-10T04:18:37;99750.56;;;19.66;45.07
29215;BME280;16252;49.816;7.964;2023-06-10T04:21:02;99766.81;;;19.74;45.60
29215;BME280;16252;49.816;7.964;2023-06-10T04:23:27;99751.25;;;19.68;45.37
29215;BME280;16252;49.816;7.964;2023-06-10T04:25:53;99761.38;;;19.74;45.59
29215;BME280;16252;49.816;7.964;2023-06-10T04:28:18;99740.41;;;19.68;45.84
29215;BME280;16252;49.816;7.964;2023-06-10T04:30:43;99778.56;;;19.89;45.42
29215;BME280;16252;49.816;7.964;2023-06-10T04:33:09;99768.44;;;19.83;45.90
29215;BME280;16252;49.816;7.964;2023-06-10T04:35:34;99755.56;;;19.77;46.03
29215;BME280;16252;49.816;7.964;2023-06-10T04:37:59;99762.03;;;19.76;45.64
29215;BME280;16252;49.816;7.964;2023-06-10T04:40:26;99779.22;;;19.91;45.96
29215;BME280;16252;49.816;7.964;2023-06-10T04:42:51;99793.38;;;20.02;45.99
29215;BME280;16252;49.816;7.964;2023-06-10T04:45:16;99798.44;;;20.05;46.28
29215;BME280;16252;49.816;7.964;2023-06-10T04:47:42;99793.00;;;20.05;46.24
29215;BME280;16252;49.816;7.964;2023-06-10T04:50:08;99703.00;;;19.55;46.38
29215;BME280;16252;49.816;7.964;2023-06-10T04:52:34;99751.41;;;19.89;46.52
29215;BME280;16252;49.816;7.964;2023-06-10T04:54:59;99754.03;;;19.98;46.52
29215;BME280;16252;49.816;7.964;2023-06-10T04:57:24;99766.81;;;20.12;46.51
29215;BME280;16252;49.816;7.964;2023-06-10T04:59:49;99799.53;;;20.33;46.30
29215;BME280;16252;49.816;7.964;2023-06-10T05:02:15;99797.75;;;20.41;46.27
29215;BME280;16252;49.816;7.964;2023-06-10T05:04:40;99774.06;;;20.34;46.82
29215;BME280;16252;49.816;7.964;2023-06-10T05:07:05;99783.81;;;20.44;46.50
29215;BME280;16252;49.816;7.964;2023-06-10T05:09:30;99764.84;;;20.35;46.95
29215;BME280;16252;49.816;7.964;2023-06-10T05:11:56;99795.84;;;20.64;46.60
29215;BME280;16252;49.816;7.964;2023-06-10T05:14:21;99765.53;;;20.52;47.52
29215;BME280;16252;49.816;7.964;2023-06-10T05:16:47;99787.59;;;20.72;47.29
29215;BME280;16252;49.816;7.964;2023-06-10T05:19:13;99798.06;;;20.90;47.86
29215;BME280;16252;49.816;7.964;2023-06-10T05:21:38;99809.72;;;20.99;47.42
29215;BME280;16252;49.816;7.964;2023-06-10T05:24:04;99779.88;;;20.91;46.91
29215;BME280;16252;49.816;7.964;2023-06-10T05:26:29;99782.31;;;21.00;47.28
29215;BME280;16252;49.816;7.964;2023-06-10T05:28:56;99765.59;;;21.04;47.08
29215;BME280;16252;49.816;7.964;2023-06-10T05:31:22;99793.53;;;21.27;46.96
29215;BME280;16252;49.816;7.964;2023-06-10T05:33:47;99778.59;;;21.23;47.32
29215;BME280;16252;49.816;7.964;2023-06-10T05:36:12;99777.38;;;21.26;47.76
29215;BME280;16252;49.816;7.964;2023-06-10T05:38:38;99796.59;;;21.39;47.68
29215;BME280;16252;49.816;7.964;2023-06-10T05:41:03;99779.31;;;21.32;47.76
29215;BME280;16252;49.816;7.964;2023-06-10T05:43:29;99805.56;;;21.54;47.43
29215;BME280;16252;49.816;7.964;2023-06-10T05:45:54;99779.78;;;21.50;48.09
29215;BME280;16252;49.816;7.964;2023-06-10T05:48:19;99793.69;;;21.62;47.67
29215;BME280;16252;49.816;7.964;2023-06-10T05:50:45;99748.91;;;21.43;47.33
29215;BME280;16252;49.816;7.964;2023-06-10T05:53:13;99787.69;;;21.67;47.27
29215;BME280;16252;49.816;7.964;2023-06-10T05:55:43;99768.44;;;21.68;47.09
29215;BME280;16252;49.816;7.964;2023-06-10T05:58:09;99803.22;;;21.94;46.92
29215;BME280;16252;49.816;7.964;2023-06-10T06:00:34;99780.34;;;21.89;46.64
29215;BME280;16252;49.816;7.964;2023-06-10T06:03:00;99739.97;;;21.71;46.29
29215;BME280;16252;49.816;7.964;2023-06-10T06:05:25;99802.56;;;22.14;46.44
29215;BME280;16252;49.816;7.964;2023-06-10T06:07:50;99794.41;;;22.14;46.42
29215;BME280;16252;49.816;7.964;2023-06-10T06:10:18;99799.97;;;22.27;45.46
29215;BME280;16252;49.816;7.964;2023-06-10T06:12:44;99797.91;;;22.29;45.86
29215;BME280;16252;49.816;7.964;2023-06-10T06:15:10;99797.94;;;22.36;45.32
29215;BME280;16252;49.816;7.964;2023-06-10T06:17:36;99824.47;;;22.48;45.38
29215;BME280;16252;49.816;7.964;2023-06-10T06:20:02;99807.31;;;22.55;45.35
29215;BME280;16252;49.816;7.964;2023-06-10T06:22:28;99777.88;;;22.43;45.23
29215;BME280;16252;49.816;7.964;2023-06-10T06:24:53;99774.34;;;22.49;45.06
29215;BME280;16252;49.816;7.964;2023-06-10T06:27:18;99809.69;;;22.71;44.71
29215;BME280;16252;49.816;7.964;2023-06-10T06:29:43;99782.00;;;22.67;44.32
29215;BME280;16252;49.816;7.964;2023-06-10T06:32:09;99795.91;;;22.79;44.25
29215;BME280;16252;49.816;7.964;2023-06-10T06:34:34;99785.25;;;22.84;44.21
29215;BME280;16252;49.816;7.964;2023-06-10T06:36:59;99796.25;;;22.98;44.24
29215;BME280;16252;49.816;7.964;2023-06-10T06:39:24;99795.00;;;23.00;44.41
29215;BME280;16252;49.816;7.964;2023-06-10T06:41:50;99792.09;;;23.08;44.17
29215;BME280;16252;49.816;7.964;2023-06-10T06:44:15;99798.88;;;23.26;44.36
29215;BME280;16252;49.816;7.964;2023-06-10T06:46:41;99783.13;;;23.28;43.84
29215;BME280;16252;49.816;7.964;2023-06-10T06:49:06;99805.88;;;23.48;43.96
29215;BME280;16252;49.816;7.964;2023-06-10T06:51:31;99799.38;;;23.56;44.17
29215;BME280;16252;49.816;7.964;2023-06-10T06:53:57;99810.56;;;23.74;43.54
29215;BME280;16252;49.816;7.964;2023-06-10T06:56:24;99809.34;;;23.84;43.33
29215;BME280;16252;49.816;7.964;2023-06-10T06:58:52;99803.25;;;23.95;43.09
29215;BME280;16252;49.816;7.964;2023-06-10T07:01:17;99812.94;;;24.04;43.04
29215;BME280;16252;49.816;7.964;2023-06-10T07:03:42;99800.75;;;24.13;43.04
29215;BME280;16252;49.816;7.964;2023-06-10T07:06:07;99805.78;;;24.36;43.16
29215;BME280;16252;49.816;7.964;2023-06-10T07:08:33;99813.94;;;24.76;43.86
29215;BME280;16252;49.816;7.964;2023-06-10T07:10:58;99819.91;;;25.25;43.50
29215;BME280;16252;49.816;7.964;2023-06-10T07:13:23;99816.88;;;25.78;42.93
29215;BME280;16252;49.816;7.964;2023-06-10T07:15:48;99821.03;;;26.19;41.96
29215;BME280;16252;49.816;7.964;2023-06-10T07:18:15;99817.00;;;26.47;41.42
29215;BME280;16252;49.816;7.964;2023-06-10T07:20:42;99808.34;;;26.68;40.97
29215;BME280;16252;49.816;7.964;2023-06-10T07:23:07;99820.13;;;27.12;41.51
29215;BME280;16252;49.816;7.964;2023-06-10T07:25:32;99793.81;;;27.53;41.61
29215;BME280;16252;49.816;7.964;2023-06-10T07:27:58;99815.44;;;28.34;40.65
29215;BME280;16252;49.816;7.964;2023-06-10T07:30:23;99827.50;;;29.15;39.69
29215;BME280;16252;49.816;7.964;2023-06-10T07:32:48;99811.72;;;29.96;38.66
29215;BME280;16252;49.816;7.964;2023-06-10T07:35:14;99814.81;;;30.84;38.04
29215;BME280;16252;49.816;7.964;2023-06-10T07:37:39;99818.63;;;31.71;36.92
29215;BME280;16252;49.816;7.964;2023-06-10T07:40:05;99796.94;;;32.50;35.42
29215;BME280;16252;49.816;7.964;2023-06-10T07:42:34;99815.16;;;33.41;35.00
29215;BME280;16252;49.816;7.964;2023-06-10T07:44:59;99825.31;;;34.19;37.53
29215;BME280;16252;49.816;7.964;2023-06-10T07:47:24;99814.94;;;34.86;33.23
29215;BME280;16252;49.816;7.964;2023-06-10T07:49:50;99808.31;;;35.47;32.21
29215;BME280;16252;49.816;7.964;2023-06-10T07:52:15;99818.47;;;36.16;30.88
29215;BME280;16252;49.816;7.964;2023-06-10T07:54:40;99809.41;;;36.64;29.76
29215;BME280;16252;49.816;7.964;2023-06-10T07:57:06;99824.09;;;37.23;29.54
29215;BME280;16252;49.816;7.964;2023-06-10T07:59:34;99824.97;;;37.80;33.43
29215;BME280;16252;49.816;7.964;2023-06-10T08:02:00;99818.25;;;38.19;28.91
29215;BME280;16252;49.816;7.964;2023-06-10T08:04:25;99815.25;;;38.62;28.45
29215;BME280;16252;49.816;7.964;2023-06-10T08:06:50;99813.13;;;39.00;27.30
29215;BME280;16252;49.816;7.964;2023-06-10T08:09:16;99811.56;;;39.36;26.18
29215;BME280;16252;49.816;7.964;2023-06-10T08:11:41;99819.34;;;39.75;26.01
29215;BME280;16252;49.816;7.964;2023-06-10T08:14:07;99816.53;;;40.12;25.32
29215;BME280;16252;49.816;7.964;2023-06-10T08:16:32;99814.59;;;40.43;25.09
29215;BME280;16252;49.816;7.964;2023-06-10T08:18:57;99824.03;;;40.79;24.70
29215;BME280;16252;49.816;7.964;2023-06-10T08:21:22;99819.03;;;41.07;24.54
29215;BME280;16252;49.816;7.964;2023-06-10T08:23:48;99827.56;;;41.33;23.40
29215;BME280;16252;49.816;7.964;2023-06-10T08:26:17;99830.44;;;41.59;23.37
29215;BME280;16252;49.816;7.964;2023-06-10T08:28:42;99834.72;;;41.91;22.47
29215;BME280;16252;49.816;7.964;2023-06-10T08:31:07;99831.75;;;42.22;22.48
29215;BME280;16252;49.816;7.964;2023-06-10T08:33:32;99829.56;;;42.46;21.97
29215;BME280;16252;49.816;7.964;2023-06-10T08:35:58;99832.78;;;42.74;22.12
29215;BME280;16252;49.816;7.964;2023-06-10T08:38:23;99809.75;;;42.89;21.54
29215;BME280;16252;49.816;7.964;2023-06-10T08:40:49;99832.25;;;43.27;21.38
29215;BME280;16252;49.816;7.964;2023-06-10T08:43:25;99823.47;;;43.50;21.75
29215;BME280;16252;49.816;7.964;2023-06-10T08:45:55;99819.00;;;43.79;21.32
29215;BME280;16252;49.816;7.964;2023-06-10T08:48:23;99832.66;;;44.10;20.34
29215;BME280;16252;49.816;7.964;2023-06-10T08:50:50;99830.53;;;44.40;20.60
29215;BME280;16252;49.816;7.964;2023-06-10T08:53:18;99830.22;;;44.66;20.18
29215;BME280;16252;49.816;7.964;2023-06-10T08:55:46;99825.84;;;44.90;19.57
29215;BME280;16252;49.816;7.964;2023-06-10T08:58:13;99815.94;;;45.08;19.12
29215;BME280;16252;49.816;7.964;2023-06-10T09:00:39;99816.53;;;45.38;19.37
29215;BME280;16252;49.816;7.964;2023-06-10T09:03:04;99824.34;;;45.70;18.98
29215;BME280;16252;49.816;7.964;2023-06-10T09:05:33;99820.50;;;45.90;18.37
29215;BME280;16252;49.816;7.964;2023-06-10T09:08:00;99818.34;;;46.12;18.45
29215;BME280;16252;49.816;7.964;2023-06-10T09:10:25;99812.78;;;46.31;17.99
29215;BME280;16252;49.816;7.964;2023-06-10T09:12:51;99826.00;;;46.55;17.75
29215;BME280;16252;49.816;7.964;2023-06-10T09:15:17;99828.59;;;46.76;17.74
29215;BME280;16252;49.816;7.964;2023-06-10T09:17:42;99813.53;;;46.88;17.27
29215;BME280;16252;49.816;7.964;2023-06-10T09:20:08;99824.34;;;47.02;16.67
29215;BME280;16252;49.816;7.964;2023-06-10T09:22:34;99814.22;;;47.17;17.07
29215;BME280;16252;49.816;7.964;2023-06-10T09:25:17;99803.13;;;47.27;18.01
29215;BME280;16252;49.816;7.964;2023-06-10T09:27:55;99819.00;;;47.48;16.67
29215;BME280;16252;49.816;7.964;2023-06-10T09:32:58;99808.16;;;47.69;16.41
29215;BME280;16252;49.816;7.964;2023-06-10T09:35:28;99819.44;;;47.85;16.22
29215;BME280;16252;49.816;7.964;2023-06-10T09:37:56;99802.63;;;47.96;15.61
29215;BME280;16252;49.816;7.964;2023-06-10T09:40:22;99807.78;;;48.10;15.60
29215;BME280;16252;49.816;7.964;2023-06-10T09:42:53;99803.59;;;48.23;16.12
29215;BME280;16252;49.816;7.964;2023-06-10T09:45:20;99800.13;;;48.33;15.52
29215;BME280;16252;49.816;7.964;2023-06-10T09:47:55;99810.75;;;48.59;15.45
29215;BME280;16252;49.816;7.964;2023-06-10T09:50:20;99823.28;;;48.81;15.36
29215;BME280;16252;49.816;7.964;2023-06-10T09:52:46;99802.44;;;48.93;14.97
29215;BME280;16252;49.816;7.964;2023-06-10T09:55:15;99798.75;;;49.19;14.68
29215;BME280;16252;49.816;7.964;2023-06-10T09:57:40;99794.91;;;49.31;14.66
29215;BME280;16252;49.816;7.964;2023-06-10T10:00:08;99813.06;;;49.53;14.98
29215;BME280;16252;49.816;7.964;2023-06-10T10:02:44;99806.00;;;49.70;15.42
29215;BME280;16252;49.816;7.964;2023-06-10T10:05:13;99790.97;;;49.70;14.58
29215;BME280;16252;49.816;7.964;2023-06-10T10:07:38;99804.97;;;49.85;14.66
29215;BME280;16252;49.816;7.964;2023-06-10T10:10:03;99802.34;;;50.03;13.78
29215;BME280;16252;49.816;7.964;2023-06-10T10:12:29;99798.44;;;50.19;13.83
29215;BME280;16252;49.816;7.964;2023-06-10T10:14:55;99798.16;;;50.31;13.58
29215;BME280;16252;49.816;7.964;2023-06-10T10:17:21;99786.44;;;50.33;13.62
29215;BME280;16252;49.816;7.964;2023-06-10T10:19:53;99786.16;;;50.45;13.58
29215;BME280;16252;49.816;7.964;2023-06-10T10:22:26;99807.84;;;50.60;13.48
29215;BME280;16252;49.816;7.964;2023-06-10T10:24:59;99788.66;;;50.53;13.57
29215;BME280;16252;49.816;7.964;2023-06-10T10:27:28;99798.47;;;50.60;13.55
29215;BME280;16252;49.816;7.964;2023-06-10T10:29:58;99805.47;;;50.69;13.44
29215;BME280;16252;49.816;7.964;2023-06-10T10:32:34;99805.53;;;50.73;14.94
29215;BME280;16252;49.816;7.964;2023-06-10T10:35:16;99802.25;;;50.74;13.98
29215;BME280;16252;49.816;7.964;2023-06-10T10:37:43;99791.66;;;50.71;13.16
29215;BME280;16252;49.816;7.964;2023-06-10T10:40:10;99785.16;;;50.71;13.35
29215;BME280;16252;49.816;7.964;2023-06-10T10:42:36;99787.63;;;50.72;13.46
29215;BME280;16252;49.816;7.964;2023-06-10T10:45:02;99802.75;;;50.80;13.01
29215;BME280;16252;49.816;7.964;2023-06-10T10:47:28;99794.53;;;50.71;12.69
29215;BME280;16252;49.816;7.964;2023-06-10T10:49:55;99792.91;;;50.74;14.48
29215;BME280;16252;49.816;7.964;2023-06-10T10:52:24;99779.22;;;50.46;13.41
29215;BME280;16252;49.816;7.964;2023-06-10T10:54:52;99784.72;;;50.28;13.43
29215;BME280;16252;49.816;7.964;2023-06-10T10:57:19;99784.34;;;49.92;12.89
29215;BME280;16252;49.816;7.964;2023-06-10T11:02:43;99788.25;;;48.93;13.07
29215;BME280;16252;49.816;7.964;2023-06-10T11:05:11;99782.25;;;48.10;13.57
29215;BME280;16252;49.816;7.964;2023-06-10T11:07:37;99779.72;;;47.46;13.78
29215;BME280;16252;49.816;7.964;2023-06-10T11:10:09;99776.25;;;46.86;13.93
29215;BME280;16252;49.816;7.964;2023-06-10T11:15:10;99740.31;;;45.54;14.48
29215;BME280;16252;49.816;7.964;2023-06-10T11:17:35;99747.16;;;45.01;14.83
29215;BME280;16252;49.816;7.964;2023-06-10T11:20:01;99756.41;;;44.64;14.98
29215;BME280;16252;49.816;7.964;2023-06-10T11:22:26;99753.50;;;44.15;15.27
29215;BME280;16252;49.816;7.964;2023-06-10T11:24:51;99750.28;;;43.71;15.72
29215;BME280;16252;49.816;7.964;2023-06-10T11:27:18;99752.34;;;43.41;15.76
29215;BME280;16252;49.816;7.964;2023-06-10T11:32:33;99752.28;;;42.60;16.24
29215;BME280;16252;49.816;7.964;2023-06-10T11:35:00;99744.13;;;42.20;16.38
29215;BME280;16252;49.816;7.964;2023-06-10T11:37:25;99746.34;;;41.97;16.81
29215;BME280;16252;49.816;7.964;2023-06-10T11:39:54;99737.75;;;41.68;17.33
29215;BME280;16252;49.816;7.964;2023-06-10T11:42:20;99727.84;;;41.35;17.29
29215;BME280;16252;49.816;7.964;2023-06-10T11:44:53;99744.66;;;41.27;17.26
29215;BME280;16252;49.816;7.964;2023-06-10T11:47:19;99724.09;;;40.91;17.49
29215;BME280;16252;49.816;7.964;2023-06-10T11:49:45;99721.09;;;40.70;17.35
29215;BME280;16252;49.816;7.964;2023-06-10T11:52:12;99719.00;;;40.54;17.21
29215;BME280;16252;49.816;7.964;2023-06-10T11:54:38;99729.69;;;40.43;17.41
29215;BME280;16252;49.816;7.964;2023-06-10T11:57:03;99723.81;;;40.22;17.74
29215;BME280;16252;49.816;7.964;2023-06-10T11:59:29;99725.84;;;40.07;17.94
29215;BME280;16252;49.816;7.964;2023-06-10T12:01:55;99717.81;;;39.83;17.83
29215;BME280;16252;49.816;7.964;2023-06-10T12:04:21;99715.16;;;39.64;18.17
29215;BME280;16252;49.816;7.964;2023-06-10T12:06:52;99717.53;;;39.49;17.89
29215;BME280;16252;49.816;7.964;2023-06-10T12:09:25;99709.69;;;39.37;18.26
29215;BME280;16252;49.816;7.964;2023-06-10T12:17:20;99733.44;;;39.26;18.83
29215;BME280;16252;49.816;7.964;2023-06-10T12:19:47;99736.97;;;39.17;18.80
29215;BME280;16252;49.816;7.964;2023-06-10T12:22:13;99717.41;;;39.04;18.73
29215;BME280;16252;49.816;7.964;2023-06-10T12:24:45;99721.66;;;39.01;18.54
29215;BME280;16252;49.816;7.964;2023-06-10T12:27:21;99698.66;;;38.76;18.99
29215;BME280;16252;49.816;7.964;2023-06-10T12:29:51;99700.44;;;38.72;19.25
29215;BME280;16252;49.816;7.964;2023-06-10T12:32:18;99686.03;;;38.51;19.34
29215;BME280;16252;49.816;7.964;2023-06-10T12:34:45;99699.06;;;38.42;19.44
29215;BME280;16252;49.816;7.964;2023-06-10T12:37:12;99705.78;;;38.27;19.33
29215;BME280;16252;49.816;7.964;2023-06-10T12:39:41;99703.81;;;38.14;19.20
29215;BME280;16252;49.816;7.964;2023-06-10T12:42:08;99694.88;;;37.98;19.39
29215;BME280;16252;49.816;7.964;2023-06-10T12:44:38;99705.06;;;37.89;19.99
29215;BME280;16252;49.816;7.964;2023-06-10T12:47:08;99673.91;;;37.68;20.26
29215;BME280;16252;49.816;7.964;2023-06-10T12:49:34;99679.25;;;37.64;20.11
29215;BME280;16252;49.816;7.964;2023-06-10T12:52:00;99699.66;;;37.79;20.27
29215;BME280;16252;49.816;7.964;2023-06-10T12:54:26;99693.44;;;37.68;19.96
29215;BME280;16252;49.816;7.964;2023-06-10T12:56:51;99711.00;;;37.68;20.03
29215;BME280;16252;49.816;7.964;2023-06-10T12:59:16;99705.78;;;37.62;20.37
29215;BME280;16252;49.816;7.964;2023-06-10T13:01:42;99706.50;;;37.54;20.40
29215;BME280;16252;49.816;7.964;2023-06-10T13:04:07;99703.38;;;37.55;20.51
29215;BME280;16252;49.816;7.964;2023-06-10T13:06:32;99692.44;;;37.40;20.57
29215;BME280;16252;49.816;7.964;2023-06-10T13:09:02;99680.94;;;37.27;20.54
29215;BME280;16252;49.816;7.964;2023-06-10T13:11:27;99653.16;;;36.98;20.67
29215;BME280;16252;49.816;7.964;2023-06-10T13:13:53;99670.19;;;36.97;20.87